sensor_id;sensor_type;location;lat;lon;timestamp;temperature;humidity
13817;DHT22;6979;52.116;5.286;2022-07-04T00:01:42;18.80;99.90
13817;DHT22;6979;52.116;5.286;2022-07-04T00:04:09;18.80;99.90
13817;DHT22;6979;52.116;5.286;2022-07-04T00:06:36;18.70;99.90
13817;DHT22;6979;52.116;5.286;2022-07-04T00:09:04;18.70;99.90
13817;DHT22;6979;52.116;5.286;2022-07-04T00:11:31;18.70;99.90
13817;DHT22;6979;52.116;5.286;2022-07-04T00:13:58;18.60;99.90
13817;DHT22;6979;52.116;5.286;2022-07-04T00:16:24;18.60;99.90
13817;DHT22;6979;52.116;5.286;2022-07-04T00:18:51;18.60;99.90
13817;DHT22;6979;52.116;5.286;2022-07-04T00:21:18;18.50;99.90
13817;DHT22;6979;52.116;5.286;2022-07-04T00:23:45;18.50;99.90
13817;DHT22;6979;52.116;5.286;2022-07-04T00:26:14;18.40;99.90
13817;DHT22;6979;52.116;5.286;2022-07-04T00:28:41;18.40;99.90
13817;DHT22;6979;52.116;5.286;2022-07-04T00:31:08;18.30;99.90
13817;DHT22;6979;52.116;5.286;2022-07-04T00:33:38;18.30;99.90
13817;DHT22;6979;52.116;5.286;2022-07-04T00:36:05;18.30;99.90
13817;DHT22;6979;52.116;5.286;2022-07-04T00:38:33;18.20;99.90
13817;DHT22;6979;52.116;5.286;2022-07-04T00:40:59;18.20;99.90
13817;DHT22;6979;52.116;5.286;2022-07-04T00:43:28;18.20;99.90
13817;DHT22;6979;52.116;5.286;2022-07-04T00:45:55;18.10;99.90
13817;DHT22;6979;52.116;5.286;2022-07-04T00:48:22;18.10;99.90
13817;DHT22;6979;52.116;5.286;2022-07-04T00:50:50;18.10;99.90
13817;DHT22;6979;52.116;5.286;2022-07-04T00:53:19;18.10;99.90
13817;DHT22;6979;52.116;5.286;2022-07-04T00:55:49;18.00;99.90
13817;DHT22;6979;52.116;5.286;2022-07-04T00:58:19;18.00;99.90
13817;DHT22;6979;52.116;5.286;2022-07-04T01:00:48;17.90;99.90
13817;DHT22;6979;52.116;5.286;2022-07-04T01:03:15;17.90;99.90
13817;DHT22;6979;52.116;5.286;2022-07-04T01:05:44;17.80;99.90
13817;DHT22;6979;52.116;5.286;2022-07-04T01:08:11;17.80;99.90
13817;DHT22;6979;52.116;5.286;2022-07-04T01:10:38;17.70;99.90
13817;DHT22;6979;52.116;5.286;2022-07-04T01:13:05;17.70;99.90
13817;DHT22;6979;52.116;5.286;2022-07-04T01:15:32;17.60;99.90
13817;DHT22;6979;52.116;5.286;2022-07-04T01:18:00;17.60;99.90
13817;DHT22;6979;52.116;5.286;2022-07-04T01:20:34;17.60;99.90
13817;DHT22;6979;52.116;5.286;2022-07-04T01:23:01;17.60;99.90
13817;DHT22;6979;52.116;5.286;2022-07-04T01:25:28;17.50;99.90
13817;DHT22;6979;52.116;5.286;2022-07-04T01:27:55;17.50;99.90
13817;DHT22;6979;52.116;5.286;2022-07-04T01:30:21;17.50;99.90
13817;DHT22;6979;52.116;5.286;2022-07-04T01:32:48;17.50;99.90
13817;DHT22;6979;52.116;5.286;2022-07-04T01:35:15;17.40;99.90
13817;DHT22;6979;52.116;5.286;2022-07-04T01:37:43;17.40;99.90
13817;DHT22;6979;52.116;5.286;2022-07-04T01:40:11;17.40;99.90
13817;DHT22;6979;52.116;5.286;2022-07-04T01:42:38;17.30;99.90
13817;DHT22;6979;52.116;5.286;2022-07-04T01:45:06;17.30;99.90
13817;DHT22;6979;52.116;5.286;2022-07-04T01:47:33;17.30;99.90
13817;DHT22;6979;52.116;5.286;2022-07-04T01:50:05;17.30;99.90
13817;DHT22;6979;52.116;5.286;2022-07-04T01:52:33;17.30;99.90
13817;DHT22;6979;52.116;5.286;2022-07-04T01:55:01;17.30;99.90
13817;DHT22;6979;52.116;5.286;2022-07-04T01:57:28;17.30;99.90
13817;DHT22;6979;52.116;5.286;2022-07-04T01:59:55;17.30;99.90
13817;DHT22;6979;52.116;5.286;2022-07-04T02:02:40;17.30;99.90
13817;DHT22;6979;52.116;5.286;2022-07-04T02:05:07;17.20;99.90
13817;DHT22;6979;52.116;5.286;2022-07-04T02:07:34;17.20;99.90
13817;DHT22;6979;52.116;5.286;2022-07-04T02:10:03;17.20;99.90
13817;DHT22;6979;52.116;5.286;2022-07-04T02:12:30;17.20;99.90
13817;DHT22;6979;52.116;5.286;2022-07-04T02:15:14;17.20;99.90
13817;DHT22;6979;52.116;5.286;2022-07-04T02:17:41;17.20;99.90
13817;DHT22;6979;52.116;5.286;2022-07-04T02:20:09;17.20;99.90
13817;DHT22;6979;52.116;5.286;2022-07-04T02:22:36;17.20;99.90
13817;DHT22;6979;52.116;5.286;2022-07-04T02:25:05;17.10;99.90
13817;DHT22;6979;52.116;5.286;2022-07-04T02:27:32;17.10;99.90
13817;DHT22;6979;52.116;5.286;2022-07-04T02:29:59;17.10;99.90
13817;DHT22;6979;52.116;5.286;2022-07-04T02:32:26;17.10;99.90
13817;DHT22;6979;52.116;5.286;2022-07-04T02:34:53;17.10;99.90
13817;DHT22;6979;52.116;5.286;2022-07-04T02:37:19;17.10;99.90
13817;DHT22;6979;52.116;5.286;2022-07-04T02:39:46;17.10;99.90
13817;DHT22;6979;52.116;5.286;2022-07-04T02:42:14;17.10;99.90
13817;DHT22;6979;52.116;5.286;2022-07-04T02:44:41;17.00;99.90
13817;DHT22;6979;52.116;5.286;2022-07-04T02:47:09;17.00;99.90
13817;DHT22;6979;52.116;5.286;2022-07-04T02:49:36;17.00;99.90
13817;DHT22;6979;52.116;5.286;2022-07-04T02:52:04;17.00;99.90
13817;DHT22;6979;52.116;5.286;2022-07-04T02:54:31;17.00;99.90
13817;DHT22;6979;52.116;5.286;2022-07-04T02:56:57;17.00;99.90
13817;DHT22;6979;52.116;5.286;2022-07-04T02:59:26;17.00;99.90
13817;DHT22;6979;52.116;5.286;2022-07-04T03:01:53;17.00;99.90
13817;DHT22;6979;52.116;5.286;2022-07-04T03:04:20;17.00;99.90
13817;DHT22;6979;52.116;5.286;2022-07-04T03:06:47;17.00;99.90
13817;DHT22;6979;52.116;5.286;2022-07-04T03:09:16;17.00;99.90
13817;DHT22;6979;52.116;5.286;2022-07-04T03:11:43;17.00;99.90
13817;DHT22;6979;52.116;5.286;2022-07-04T03:14:11;16.90;99.90
13817;DHT22;6979;52.116;5.286;2022-07-04T03:16:39;16.90;99.90
13817;DHT22;6979;52.116;5.286;2022-07-04T03:19:06;16.90;99.90
13817;DHT22;6979;52.116;5.286;2022-07-04T03:21:33;16.90;99.90
13817;DHT22;6979;52.116;5.286;2022-07-04T03:24:00;16.90;99.90
13817;DHT22;6979;52.116;5.286;2022-07-04T03:26:28;16.90;99.90
13817;DHT22;6979;52.116;5.286;2022-07-04T03:28:56;16.90;99.90
13817;DHT22;6979;52.116;5.286;2022-07-04T03:31:24;16.90;99.90
13817;DHT22;6979;52.116;5.286;2022-07-04T03:33:53;16.90;99.90
13817;DHT22;6979;52.116;5.286;2022-07-04T03:36:21;16.90;99.90
13817;DHT22;6979;52.116;5.286;2022-07-04T03:38:48;16.90;99.90
13817;DHT22;6979;52.116;5.286;2022-07-04T03:41:15;16.90;99.90
13817;DHT22;6979;52.116;5.286;2022-07-04T03:43:41;16.90;99.90
13817;DHT22;6979;52.116;5.286;2022-07-04T03:46:08;16.90;99.90
13817;DHT22;6979;52.116;5.286;2022-07-04T03:48:35;16.90;99.90
13817;DHT22;6979;52.116;5.286;2022-07-04T03:51:04;16.90;99.90
13817;DHT22;6979;52.116;5.286;2022-07-04T03:53:30;16.90;99.90
13817;DHT22;6979;52.116;5.286;2022-07-04T03:55:57;16.90;99.90
13817;DHT22;6979;52.116;5.286;2022-07-04T03:58:24;16.90;99.90
13817;DHT22;6979;52.116;5.286;2022-07-04T04:00:51;16.80;99.90
13817;DHT22;6979;52.116;5.286;2022-07-04T04:03:17;16.80;99.90
13817;DHT22;6979;52.116;5.286;2022-07-04T04:06:03;16.80;99.90
13817;DHT22;6979;52.116;5.286;2022-07-04T04:08:30;16.80;99.90
13817;DHT22;6979;52.116;5.286;2022-07-04T04:10:57;16.80;99.90
13817;DHT22;6979;52.116;5.286;2022-07-04T04:13:24;16.80;99.90
13817;DHT22;6979;52.116;5.286;2022-07-04T04:15:50;16.80;99.90
13817;DHT22;6979;52.116;5.286;2022-07-04T04:18:17;16.80;99.90
13817;DHT22;6979;52.116;5.286;2022-07-04T04:20:44;16.80;99.90
13817;DHT22;6979;52.116;5.286;2022-07-04T04:23:12;16.80;99.90
13817;DHT22;6979;52.116;5.286;2022-07-04T04:25:39;16.80;99.90
13817;DHT22;6979;52.116;5.286;2022-07-04T04:28:06;16.80;99.90
13817;DHT22;6979;52.116;5.286;2022-07-04T04:30:32;16.90;99.90
13817;DHT22;6979;52.116;5.286;2022-07-04T04:32:59;16.80;99.90
13817;DHT22;6979;52.116;5.286;2022-07-04T04:35:28;16.80;99.90
13817;DHT22;6979;52.116;5.286;2022-07-04T04:37:55;16.80;99.90
13817;DHT22;6979;52.116;5.286;2022-07-04T04:40:23;16.80;99.90
13817;DHT22;6979;52.116;5.286;2022-07-04T04:42:50;16.90;99.90
13817;DHT22;6979;52.116;5.286;2022-07-04T04:45:17;16.90;99.90
13817;DHT22;6979;52.116;5.286;2022-07-04T04:47:44;16.90;99.90
13817;DHT22;6979;52.116;5.286;2022-07-04T04:50:11;16.90;99.90
13817;DHT22;6979;52.116;5.286;2022-07-04T04:52:40;16.90;99.90
13817;DHT22;6979;52.116;5.286;2022-07-04T04:55:08;16.90;99.90
13817;DHT22;6979;52.116;5.286;2022-07-04T04:57:36;17.00;99.90
13817;DHT22;6979;52.116;5.286;2022-07-04T05:00:04;17.00;99.90
13817;DHT22;6979;52.116;5.286;2022-07-04T05:02:31;17.00;99.90
13817;DHT22;6979;52.116;5.286;2022-07-04T05:04:57;17.10;99.90
13817;DHT22;6979;52.116;5.286;2022-07-04T05:07:26;17.10;99.90
13817;DHT22;6979;52.116;5.286;2022-07-04T05:09:55;17.20;99.90
13817;DHT22;6979;52.116;5.286;2022-07-04T05:12:25;17.30;99.90
13817;DHT22;6979;52.116;5.286;2022-07-04T05:14:54;17.30;99.90
13817;DHT22;6979;52.116;5.286;2022-07-04T05:17:21;17.40;99.90
13817;DHT22;6979;52.116;5.286;2022-07-04T05:19:48;17.40;99.90
13817;DHT22;6979;52.116;5.286;2022-07-04T05:22:15;17.50;99.90
13817;DHT22;6979;52.116;5.286;2022-07-04T05:24:43;17.50;99.90
13817;DHT22;6979;52.116;5.286;2022-07-04T05:27:10;17.60;99.90
13817;DHT22;6979;52.116;5.286;2022-07-04T05:29:37;17.70;99.90
13817;DHT22;6979;52.116;5.286;2022-07-04T05:32:06;17.70;99.90
13817;DHT22;6979;52.116;5.286;2022-07-04T05:34:33;17.80;99.90
13817;DHT22;6979;52.116;5.286;2022-07-04T05:37:01;17.80;99.90
13817;DHT22;6979;52.116;5.286;2022-07-04T05:39:28;17.90;99.90
13817;DHT22;6979;52.116;5.286;2022-07-04T05:41:56;18.00;99.90
13817;DHT22;6979;52.116;5.286;2022-07-04T05:44:22;18.00;99.90
13817;DHT22;6979;52.116;5.286;2022-07-04T05:46:52;18.10;99.90
13817;DHT22;6979;52.116;5.286;2022-07-04T05:49:20;18.20;99.90
13817;DHT22;6979;52.116;5.286;2022-07-04T05:51:48;18.30;99.90
13817;DHT22;6979;52.116;5.286;2022-07-04T05:54:15;18.40;99.90
13817;DHT22;6979;52.116;5.286;2022-07-04T05:56:41;18.50;99.90
13817;DHT22;6979;52.116;5.286;2022-07-04T05:59:09;18.60;99.90
13817;DHT22;6979;52.116;5.286;2022-07-04T06:01:36;18.70;99.90
13817;DHT22;6979;52.116;5.286;2022-07-04T06:04:03;18.70;99.90
13817;DHT22;6979;52.116;5.286;2022-07-04T06:06:31;18.80;99.90
13817;DHT22;6979;52.116;5.286;2022-07-04T06:08:58;18.90;99.90
13817;DHT22;6979;52.116;5.286;2022-07-04T06:11:26;19.00;99.90
13817;DHT22;6979;52.116;5.286;2022-07-04T06:13:53;19.00;99.90
13817;DHT22;6979;52.116;5.286;2022-07-04T06:16:20;19.10;99.90
13817;DHT22;6979;52.116;5.286;2022-07-04T06:18:46;19.20;99.90
13817;DHT22;6979;52.116;5.286;2022-07-04T06:21:14;19.30;99.90
13817;DHT22;6979;52.116;5.286;2022-07-04T06:23:42;19.40;99.90
13817;DHT22;6979;52.116;5.286;2022-07-04T06:26:09;19.50;99.90
13817;DHT22;6979;52.116;5.286;2022-07-04T06:28:35;19.50;99.90
13817;DHT22;6979;52.116;5.286;2022-07-04T06:31:02;19.60;99.90
13817;DHT22;6979;52.116;5.286;2022-07-04T06:33:29;19.70;99.90
13817;DHT22;6979;52.116;5.286;2022-07-04T06:35:56;19.80;99.90
13817;DHT22;6979;52.116;5.286;2022-07-04T06:38:23;19.90;99.90
13817;DHT22;6979;52.116;5.286;2022-07-04T06:40:53;20.00;99.90
13817;DHT22;6979;52.116;5.286;2022-07-04T06:43:20;20.00;99.90
13817;DHT22;6979;52.116;5.286;2022-07-04T06:45:48;20.10;99.90
13817;DHT22;6979;52.116;5.286;2022-07-04T06:48:15;20.20;99.90
13817;DHT22;6979;52.116;5.286;2022-07-04T06:50:42;20.30;99.90
13817;DHT22;6979;52.116;5.286;2022-07-04T06:53:09;20.40;99.90
13817;DHT22;6979;52.116;5.286;2022-07-04T06:55:37;20.50;99.90
13817;DHT22;6979;52.116;5.286;2022-07-04T06:58:06;20.50;99.90
13817;DHT22;6979;52.116;5.286;2022-07-04T07:00:33;20.60;99.90
13817;DHT22;6979;52.116;5.286;2022-07-04T07:03:01;20.70;99.90
13817;DHT22;6979;52.116;5.286;2022-07-04T07:05:29;20.80;99.90
13817;DHT22;6979;52.116;5.286;2022-07-04T07:07:56;20.80;99.90
13817;DHT22;6979;52.116;5.286;2022-07-04T07:10:23;20.90;99.90
13817;DHT22;6979;52.116;5.286;2022-07-04T07:12:50;21.00;99.90
13817;DHT22;6979;52.116;5.286;2022-07-04T07:15:18;21.10;99.90
13817;DHT22;6979;52.116;5.286;2022-07-04T07:17:45;21.20;99.90
13817;DHT22;6979;52.116;5.286;2022-07-04T07:20:12;21.20;99.90
13817;DHT22;6979;52.116;5.286;2022-07-04T07:22:47;21.30;99.90
13817;DHT22;6979;52.116;5.286;2022-07-04T07:25:14;21.40;99.90
13817;DHT22;6979;52.116;5.286;2022-07-04T07:27:40;21.40;99.90
13817;DHT22;6979;52.116;5.286;2022-07-04T07:30:09;21.50;99.90
13817;DHT22;6979;52.116;5.286;2022-07-04T07:32:38;21.50;99.90
13817;DHT22;6979;52.116;5.286;2022-07-04T07:35:07;21.60;99.90
13817;DHT22;6979;52.116;5.286;2022-07-04T07:37:34;21.70;99.90
13817;DHT22;6979;52.116;5.286;2022-07-04T07:40:01;21.70;99.90
13817;DHT22;6979;52.116;5.286;2022-07-04T07:42:29;21.80;99.90
13817;DHT22;6979;52.116;5.286;2022-07-04T07:44:57;21.90;99.90
13817;DHT22;6979;52.116;5.286;2022-07-04T07:47:23;22.00;99.90
13817;DHT22;6979;52.116;5.286;2022-07-04T07:49:51;22.10;99.90
13817;DHT22;6979;52.116;5.286;2022-07-04T07:52:18;22.10;99.90
13817;DHT22;6979;52.116;5.286;2022-07-04T07:54:45;22.20;99.90
13817;DHT22;6979;52.116;5.286;2022-07-04T07:57:12;22.30;99.90
13817;DHT22;6979;52.116;5.286;2022-07-04T07:59:39;22.40;99.90
13817;DHT22;6979;52.116;5.286;2022-07-04T08:02:08;22.50;99.90
13817;DHT22;6979;52.116;5.286;2022-07-04T08:04:35;22.60;99.90
13817;DHT22;6979;52.116;5.286;2022-07-04T08:07:03;22.70;99.90
13817;DHT22;6979;52.116;5.286;2022-07-04T08:09:31;22.80;99.90
13817;DHT22;6979;52.116;5.286;2022-07-04T08:11:58;22.90;99.90
13817;DHT22;6979;52.116;5.286;2022-07-04T08:14:25;23.00;99.90
13817;DHT22;6979;52.116;5.286;2022-07-04T08:16:56;23.10;99.90
13817;DHT22;6979;52.116;5.286;2022-07-04T08:19:24;23.20;99.90
13817;DHT22;6979;52.116;5.286;2022-07-04T08:21:51;23.30;99.90
13817;DHT22;6979;52.116;5.286;2022-07-04T08:24:20;23.40;99.90
13817;DHT22;6979;52.116;5.286;2022-07-04T08:26:47;23.50;99.90
13817;DHT22;6979;52.116;5.286;2022-07-04T08:29:14;23.60;99.90
13817;DHT22;6979;52.116;5.286;2022-07-04T08:31:41;23.60;99.90
13817;DHT22;6979;52.116;5.286;2022-07-04T08:34:08;23.70;99.90
13817;DHT22;6979;52.116;5.286;2022-07-04T08:36:35;23.80;99.90
13817;DHT22;6979;52.116;5.286;2022-07-04T08:39:03;23.90;99.90
13817;DHT22;6979;52.116;5.286;2022-07-04T08:41:35;24.00;99.90
13817;DHT22;6979;52.116;5.286;2022-07-04T08:44:04;24.00;99.90
13817;DHT22;6979;52.116;5.286;2022-07-04T08:46:32;24.20;99.90
13817;DHT22;6979;52.116;5.286;2022-07-04T08:49:02;24.20;99.90
13817;DHT22;6979;52.116;5.286;2022-07-04T08:51:41;24.30;99.90
13817;DHT22;6979;52.116;5.286;2022-07-04T08:54:12;24.30;99.90
13817;DHT22;6979;52.116;5.286;2022-07-04T08:56:55;24.30;99.90
13817;DHT22;6979;52.116;5.286;2022-07-04T08:59:39;24.40;99.90
13817;DHT22;6979;52.116;5.286;2022-07-04T09:02:11;24.50;99.90
13817;DHT22;6979;52.116;5.286;2022-07-04T09:04:40;24.70;99.90
13817;DHT22;6979;52.116;5.286;2022-07-04T09:07:07;25.00;99.90
13817;DHT22;6979;52.116;5.286;2022-07-04T09:09:35;25.30;99.90
13817;DHT22;6979;52.116;5.286;2022-07-04T09:12:04;25.60;99.70
13817;DHT22;6979;52.116;5.286;2022-07-04T09:14:32;25.90;99.10
13817;DHT22;6979;52.116;5.286;2022-07-04T09:16:59;26.20;98.50
13817;DHT22;6979;52.116;5.286;2022-07-04T09:19:26;26.50;98.30
13817;DHT22;6979;52.116;5.286;2022-07-04T09:21:53;26.90;96.00
13817;DHT22;6979;52.116;5.286;2022-07-04T09:24:43;27.20;95.70
13817;DHT22;6979;52.116;5.286;2022-07-04T09:27:29;27.30;93.50
13817;DHT22;6979;52.116;5.286;2022-07-04T09:29:56;27.40;92.40
13817;DHT22;6979;52.116;5.286;2022-07-04T09:32:36;27.40;92.10
13817;DHT22;6979;52.116;5.286;2022-07-04T09:35:04;27.30;91.40
13817;DHT22;6979;52.116;5.286;2022-07-04T09:37:37;27.10;90.90
13817;DHT22;6979;52.116;5.286;2022-07-04T09:40:06;26.90;90.70
13817;DHT22;6979;52.116;5.286;2022-07-04T09:42:37;26.70;91.20
13817;DHT22;6979;52.116;5.286;2022-07-04T09:45:05;26.50;91.30
13817;DHT22;6979;52.116;5.286;2022-07-04T09:47:33;26.40;91.60
13817;DHT22;6979;52.116;5.286;2022-07-04T09:50:00;26.30;91.40
13817;DHT22;6979;52.116;5.286;2022-07-04T09:52:27;26.20;91.20
13817;DHT22;6979;52.116;5.286;2022-07-04T09:54:57;26.10;91.40
13817;DHT22;6979;52.116;5.286;2022-07-04T09:57:24;26.00;91.30
13817;DHT22;6979;52.116;5.286;2022-07-04T09:59:54;25.90;91.40
13817;DHT22;6979;52.116;5.286;2022-07-04T10:02:21;25.80;91.50
13817;DHT22;6979;52.116;5.286;2022-07-04T10:04:50;25.70;91.70
13817;DHT22;6979;52.116;5.286;2022-07-04T10:07:30;25.60;91.80
13817;DHT22;6979;52.116;5.286;2022-07-04T10:09:58;25.50;91.20
13817;DHT22;6979;52.116;5.286;2022-07-04T10:12:25;25.50;91.70
13817;DHT22;6979;52.116;5.286;2022-07-04T10:14:55;25.40;91.60
13817;DHT22;6979;52.116;5.286;2022-07-04T10:17:22;25.40;91.30
13817;DHT22;6979;52.116;5.286;2022-07-04T10:19:49;25.30;91.60
13817;DHT22;6979;52.116;5.286;2022-07-04T10:22:19;25.20;91.80
13817;DHT22;6979;52.116;5.286;2022-07-04T10:24:47;25.10;92.00
13817;DHT22;6979;52.116;5.286;2022-07-04T10:27:14;25.10;92.20
13817;DHT22;6979;52.116;5.286;2022-07-04T10:29:41;25.10;92.60
13817;DHT22;6979;52.116;5.286;2022-07-04T10:32:11;25.20;92.60
13817;DHT22;6979;52.116;5.286;2022-07-04T10:34:40;25.40;93.20
13817;DHT22;6979;52.116;5.286;2022-07-04T10:37:07;25.80;93.60
13817;DHT22;6979;52.116;5.286;2022-07-04T10:39:34;26.20;94.10
13817;DHT22;6979;52.116;5.286;2022-07-04T10:42:01;26.80;92.80
13817;DHT22;6979;52.116;5.286;2022-07-04T10:44:28;27.30;92.10
13817;DHT22;6979;52.116;5.286;2022-07-04T10:47:03;27.60;90.20
13817;DHT22;6979;52.116;5.286;2022-07-04T10:49:34;27.90;87.20
13817;DHT22;6979;52.116;5.286;2022-07-04T10:52:13;28.10;85.50
13817;DHT22;6979;52.116;5.286;2022-07-04T10:54:41;28.20;84.80
13817;DHT22;6979;52.116;5.286;2022-07-04T10:57:13;28.40;84.20
13817;DHT22;6979;52.116;5.286;2022-07-04T10:59:41;28.60;84.00
13817;DHT22;6979;52.116;5.286;2022-07-04T11:02:23;28.80;83.30
13817;DHT22;6979;52.116;5.286;2022-07-04T11:04:54;29.10;83.60
13817;DHT22;6979;52.116;5.286;2022-07-04T11:07:22;29.40;78.90
13817;DHT22;6979;52.116;5.286;2022-07-04T11:10:18;29.60;76.30
13817;DHT22;6979;52.116;5.286;2022-07-04T11:13:04;29.70;76.00
13817;DHT22;6979;52.116;5.286;2022-07-04T11:15:58;29.80;76.90
13817;DHT22;6979;52.116;5.286;2022-07-04T11:18:27;29.90;77.30
13817;DHT22;6979;52.116;5.286;2022-07-04T11:20:57;29.90;76.90
13817;DHT22;6979;52.116;5.286;2022-07-04T11:23:24;29.90;76.80
13817;DHT22;6979;52.116;5.286;2022-07-04T11:25:53;29.90;77.10
13817;DHT22;6979;52.116;5.286;2022-07-04T11:28:23;29.80;76.90
13817;DHT22;6979;52.116;5.286;2022-07-04T11:30:51;29.80;76.80
13817;DHT22;6979;52.116;5.286;2022-07-04T11:33:20;29.70;76.20
13817;DHT22;6979;52.116;5.286;2022-07-04T11:36:05;29.70;76.90
13817;DHT22;6979;52.116;5.286;2022-07-04T11:38:50;29.60;75.30
13817;DHT22;6979;52.116;5.286;2022-07-04T11:41:20;29.60;75.90
13817;DHT22;6979;52.116;5.286;2022-07-04T11:44:06;29.70;76.00
13817;DHT22;6979;52.116;5.286;2022-07-04T11:46:51;29.60;75.00
13817;DHT22;6979;52.116;5.286;2022-07-04T11:49:27;29.60;75.70
13817;DHT22;6979;52.116;5.286;2022-07-04T11:51:56;29.50;76.10
13817;DHT22;6979;52.116;5.286;2022-07-04T11:54:24;29.50;76.00
13817;DHT22;6979;52.116;5.286;2022-07-04T11:56:51;29.50;76.00
13817;DHT22;6979;52.116;5.286;2022-07-04T11:59:18;29.50;76.10
13817;DHT22;6979;52.116;5.286;2022-07-04T12:01:48;29.50;74.80
13817;DHT22;6979;52.116;5.286;2022-07-04T12:04:16;29.40;75.30
13817;DHT22;6979;52.116;5.286;2022-07-04T12:06:45;29.40;74.30
13817;DHT22;6979;52.116;5.286;2022-07-04T12:09:15;29.40;75.40
13817;DHT22;6979;52.116;5.286;2022-07-04T12:11:54;29.40;74.80
13817;DHT22;6979;52.116;5.286;2022-07-04T12:14:21;29.40;74.60
13817;DHT22;6979;52.116;5.286;2022-07-04T12:16:48;29.40;75.30
13817;DHT22;6979;52.116;5.286;2022-07-04T12:19:16;29.40;74.60
13817;DHT22;6979;52.116;5.286;2022-07-04T12:21:43;29.40;74.90
13817;DHT22;6979;52.116;5.286;2022-07-04T12:24:11;29.40;74.70
13817;DHT22;6979;52.116;5.286;2022-07-04T12:26:49;29.40;75.00
13817;DHT22;6979;52.116;5.286;2022-07-04T12:29:24;29.40;74.10
13817;DHT22;6979;52.116;5.286;2022-07-04T12:31:53;29.40;73.90
13817;DHT22;6979;52.116;5.286;2022-07-04T12:34:20;29.40;73.40
13817;DHT22;6979;52.116;5.286;2022-07-04T12:36:48;29.40;73.50
13817;DHT22;6979;52.116;5.286;2022-07-04T12:39:29;29.30;73.90
13817;DHT22;6979;52.116;5.286;2022-07-04T12:42:09;29.20;73.90
13817;DHT22;6979;52.116;5.286;2022-07-04T12:44:36;29.20;73.90
13817;DHT22;6979;52.116;5.286;2022-07-04T12:47:04;29.30;72.90
13817;DHT22;6979;52.116;5.286;2022-07-04T12:49:31;29.30;72.80
13817;DHT22;6979;52.116;5.286;2022-07-04T12:52:06;29.30;73.90
13817;DHT22;6979;52.116;5.286;2022-07-04T12:54:34;29.30;73.70
13817;DHT22;6979;52.116;5.286;2022-07-04T12:57:09;29.30;74.50
13817;DHT22;6979;52.116;5.286;2022-07-04T12:59:38;29.40;72.70
13817;DHT22;6979;52.116;5.286;2022-07-04T13:02:06;29.40;73.30
13817;DHT22;6979;52.116;5.286;2022-07-04T13:04:34;29.50;72.90
13817;DHT22;6979;52.116;5.286;2022-07-04T13:07:13;29.50;73.50
13817;DHT22;6979;52.116;5.286;2022-07-04T13:09:41;29.60;73.40
13817;DHT22;6979;52.116;5.286;2022-07-04T13:12:10;29.80;73.40
13817;DHT22;6979;52.116;5.286;2022-07-04T13:14:54;29.90;73.20
13817;DHT22;6979;52.116;5.286;2022-07-04T13:17:22;30.10;72.10
13817;DHT22;6979;52.116;5.286;2022-07-04T13:19:53;30.20;72.60
13817;DHT22;6979;52.116;5.286;2022-07-04T13:22:22;30.40;73.30
13817;DHT22;6979;52.116;5.286;2022-07-04T13:24:50;30.50;72.20
13817;DHT22;6979;52.116;5.286;2022-07-04T13:27:18;30.60;71.50
13817;DHT22;6979;52.116;5.286;2022-07-04T13:29:46;30.70;71.20
13817;DHT22;6979;52.116;5.286;2022-07-04T13:32:13;30.90;71.60
13817;DHT22;6979;52.116;5.286;2022-07-04T13:34:42;31.00;70.40
13817;DHT22;6979;52.116;5.286;2022-07-04T13:37:11;31.10;71.40
13817;DHT22;6979;52.116;5.286;2022-07-04T13:39:41;31.20;71.50
13817;DHT22;6979;52.116;5.286;2022-07-04T13:42:08;31.30;71.70
13817;DHT22;6979;52.116;5.286;2022-07-04T13:44:37;31.50;71.20
13817;DHT22;6979;52.116;5.286;2022-07-04T13:47:04;31.60;70.20
13817;DHT22;6979;52.116;5.286;2022-07-04T13:49:39;31.70;69.70
13817;DHT22;6979;52.116;5.286;2022-07-04T13:52:06;31.90;68.80
13817;DHT22;6979;52.116;5.286;2022-07-04T13:54:33;31.90;68.70
13817;DHT22;6979;52.116;5.286;2022-07-04T13:57:00;31.90;67.80
13817;DHT22;6979;52.116;5.286;2022-07-04T13:59:31;31.90;68.20
13817;DHT22;6979;52.116;5.286;2022-07-04T14:01:59;31.90;68.20
13817;DHT22;6979;52.116;5.286;2022-07-04T14:04:26;31.80;68.50
13817;DHT22;6979;52.116;5.286;2022-07-04T14:06:55;31.80;68.50
13817;DHT22;6979;52.116;5.286;2022-07-04T14:09:22;31.80;68.70
13817;DHT22;6979;52.116;5.286;2022-07-04T14:11:49;31.80;68.70
13817;DHT22;6979;52.116;5.286;2022-07-04T14:14:16;31.80;68.50
13817;DHT22;6979;52.116;5.286;2022-07-04T14:16:44;31.80;68.80
13817;DHT22;6979;52.116;5.286;2022-07-04T14:19:14;31.80;68.70
13817;DHT22;6979;52.116;5.286;2022-07-04T14:21:41;31.80;68.50
13817;DHT22;6979;52.116;5.286;2022-07-04T14:24:08;31.90;68.90
13817;DHT22;6979;52.116;5.286;2022-07-04T14:26:34;31.80;68.30
13817;DHT22;6979;52.116;5.286;2022-07-04T14:29:01;31.90;68.50
13817;DHT22;6979;52.116;5.286;2022-07-04T14:31:28;31.80;68.40
13817;DHT22;6979;52.116;5.286;2022-07-04T14:33:56;31.80;67.50
13817;DHT22;6979;52.116;5.286;2022-07-04T14:36:24;31.70;67.90
13817;DHT22;6979;52.116;5.286;2022-07-04T14:38:51;31.60;67.80
13817;DHT22;6979;52.116;5.286;2022-07-04T14:41:18;31.60;68.50
13817;DHT22;6979;52.116;5.286;2022-07-04T14:43:45;31.60;68.80
13817;DHT22;6979;52.116;5.286;2022-07-04T14:46:12;31.60;68.50
13817;DHT22;6979;52.116;5.286;2022-07-04T14:48:39;31.50;68.50
13817;DHT22;6979;52.116;5.286;2022-07-04T14:51:06;31.50;68.60
13817;DHT22;6979;52.116;5.286;2022-07-04T14:53:34;31.50;67.10
13817;DHT22;6979;52.116;5.286;2022-07-04T14:56:02;31.50;67.60
13817;DHT22;6979;52.116;5.286;2022-07-04T14:58:29;31.40;67.40
13817;DHT22;6979;52.116;5.286;2022-07-04T15:00:56;31.30;67.50
13817;DHT22;6979;52.116;5.286;2022-07-04T15:03:23;31.20;68.40
13817;DHT22;6979;52.116;5.286;2022-07-04T15:05:50;31.20;68.60
13817;DHT22;6979;52.116;5.286;2022-07-04T15:08:17;31.10;68.90
13817;DHT22;6979;52.116;5.286;2022-07-04T15:10:46;31.10;69.30
13817;DHT22;6979;52.116;5.286;2022-07-04T15:13:13;31.10;69.60
13817;DHT22;6979;52.116;5.286;2022-07-04T15:15:40;31.20;69.90
13817;DHT22;6979;52.116;5.286;2022-07-04T15:18:07;31.30;70.00
13817;DHT22;6979;52.116;5.286;2022-07-04T15:20:34;31.40;70.00
13817;DHT22;6979;52.116;5.286;2022-07-04T15:23:18;31.40;69.90
13817;DHT22;6979;52.116;5.286;2022-07-04T15:26:04;31.50;69.80
13817;DHT22;6979;52.116;5.286;2022-07-04T15:28:31;31.60;69.30
13817;DHT22;6979;52.116;5.286;2022-07-04T15:30:58;31.60;69.40
13817;DHT22;6979;52.116;5.286;2022-07-04T15:33:27;31.60;69.30
13817;DHT22;6979;52.116;5.286;2022-07-04T15:35:56;31.70;68.50
13817;DHT22;6979;52.116;5.286;2022-07-04T15:38:23;31.70;67.80
13817;DHT22;6979;52.116;5.286;2022-07-04T15:40:50;31.60;67.90
13817;DHT22;6979;52.116;5.286;2022-07-04T15:43:19;31.50;68.10
13817;DHT22;6979;52.116;5.286;2022-07-04T15:45:46;31.40;68.60
13817;DHT22;6979;52.116;5.286;2022-07-04T15:48:13;31.40;69.10
13817;DHT22;6979;52.116;5.286;2022-07-04T15:50:40;31.40;69.00
13817;DHT22;6979;52.116;5.286;2022-07-04T15:53:06;31.30;68.90
13817;DHT22;6979;52.116;5.286;2022-07-04T15:55:34;31.30;68.70